Time;durP1;ratioP1;P1;durP2;ratioP2;P2;SDS_P1;SDS_P2;PMS_P1;PMS_P2;Temp;Humidity;BMP_temperature;BMP_pressure;BME280_temperature;BME280_humidity;BME280_pressure;Samples;Min_cycle;Max_cycle;Signal;HPM_P1;HPM_P2
2023/01/13 00:01:07;;;;;;;;;;;20.90;40.10;;;;;;5071772;28;19928;-61
2023/01/13 00:03:34;;;;;;;;;;;20.90;40.10;;;;;;5071561;28;19924;-61
2023/01/13 00:06:01;;;;;;;;;;;20.90;40.10;;;;;;5071203;28;19951;-62
2023/01/13 00:08:29;;;;;;;;;;;20.90;40.10;;;;;;5053156;28;19920;-62
2023/01/13 00:10:56;;;;;;;;;;;20.90;40.10;;;;;;5068380;28;20287;-61
2023/01/13 00:13:25;;;;;;;;;;;20.90;40.10;;;;;;5071900;28;20023;-61
2023/01/13 00:15:56;;;;;;;;;;;20.90;40.10;;;;;;5071615;28;19920;-61
2023/01/13 00:18:24;;;;;;;;;;;20.90;40.10;;;;;;5071645;28;19927;-61
2023/01/13 00:21:05;;;;;;;;;;;20.90;40.10;;;;;;5071165;28;19928;-61
2023/01/13 00:23:33;;;;;;;;;;;20.90;40.10;;;;;;5070418;28;19978;-61
2023/01/13 00:26:01;;;;;;;;;;;20.90;40.10;;;;;;5071151;28;19924;-61
2023/01/13 00:28:28;;;;;;;;;;;20.80;40.00;;;;;;5071253;28;20433;-61
2023/01/13 00:30:57;;;;;;;;;;;20.90;40.10;;;;;;5070895;28;20300;-61
2023/01/13 00:33:24;;;;;;;;;;;20.80;40.10;;;;;;5070943;28;19982;-61
2023/01/13 00:35:58;;;;;;;;;;;20.80;40.10;;;;;;5068475;28;19920;-61
2023/01/13 00:38:25;;;;;;;;;;;20.80;40.00;;;;;;5070967;28;19931;-61
2023/01/13 00:40:59;;;;;;;;;;;20.80;40.00;;;;;;5070428;28;19971;-62
2023/01/13 00:43:27;;;;;;;;;;;20.80;40.00;;;;;;5071485;28;19927;-61
2023/01/13 00:45:54;;;;;;;;;;;20.80;40.00;;;;;;5070577;28;19942;-61
2023/01/13 00:48:22;;;;;;;;;;;20.80;40.00;;;;;;5071752;28;19926;-63
2023/01/13 00:51:00;;;;;;;;;;;20.80;40.00;;;;;;5071285;28;19920;-61
2023/01/13 00:53:27;;;;;;;;;;;20.80;40.00;;;;;;5071081;28;20011;-61
2023/01/13 00:56:01;;;;;;;;;;;20.80;40.00;;;;;;5070059;28;19928;-61
2023/01/13 00:58:29;;;;;;;;;;;20.80;40.00;;;;;;5071273;28;20008;-61
2023/01/13 01:01:00;;;;;;;;;;;20.80;40.00;;;;;;5071151;28;19924;-61
2023/01/13 01:03:28;;;;;;;;;;;20.80;40.10;;;;;;5071147;28;19946;-62
2023/01/13 01:05:55;;;;;;;;;;;20.80;40.10;;;;;;5069568;28;19921;-62
2023/01/13 01:08:22;;;;;;;;;;;20.80;40.00;;;;;;5070613;28;20301;-62
2023/01/13 01:10:49;;;;;;;;;;;20.80;40.00;;;;;;5070950;28;19920;-61
2023/01/13 01:13:16;;;;;;;;;;;20.80;40.00;;;;;;5070343;28;20015;-62
2023/01/13 01:15:43;;;;;;;;;;;20.80;40.00;;;;;;5070884;28;19920;-61
2023/01/13 01:18:10;;;;;;;;;;;20.80;40.00;;;;;;5070496;28;19935;-61
2023/01/13 01:20:37;;;;;;;;;;;20.70;40.00;;;;;;5071222;28;20004;-61
2023/01/13 01:23:04;;;;;;;;;;;20.70;40.00;;;;;;5074185;28;19928;-61
2023/01/13 01:25:31;;;;;;;;;;;20.80;40.00;;;;;;5075017;28;20279;-61
2023/01/13 01:27:59;;;;;;;;;;;20.80;40.00;;;;;;5074039;28;19963;-61
2023/01/13 01:30:25;;;;;;;;;;;20.70;40.10;;;;;;5074822;28;20007;-61
2023/01/13 01:32:52;;;;;;;;;;;20.80;40.10;;;;;;5074450;28;19928;-61
2023/01/13 01:35:19;;;;;;;;;;;20.80;40.00;;;;;;5074436;28;19927;-62
2023/01/13 01:37:46;;;;;;;;;;;20.80;40.00;;;;;;5074016;28;19928;-61
2023/01/13 01:40:13;;;;;;;;;;;20.70;39.90;;;;;;5074272;28;19926;-61
2023/01/13 01:45:29;;;;;;;;;;;20.80;40.00;;;;;;5074306;28;19927;-61
2023/01/13 01:47:58;;;;;;;;;;;20.80;39.90;;;;;;5074170;28;19924;-61
2023/01/13 01:50:26;;;;;;;;;;;20.80;39.90;;;;;;5074065;28;20003;-61
2023/01/13 01:52:56;;;;;;;;;;;20.80;39.90;;;;;;5074079;28;19926;-61
2023/01/13 01:55:24;;;;;;;;;;;20.70;39.80;;;;;;5074067;28;19928;-61
2023/01/13 01:58:11;;;;;;;;;;;20.80;39.90;;;;;;5074033;28;20635;-61
2023/01/13 02:00:38;;;;;;;;;;;20.70;39.80;;;;;;5071673;28;19920;-61
2023/01/13 02:03:06;;;;;;;;;;;20.70;39.80;;;;;;5073466;28;19921;-62
2023/01/13 02:05:37;;;;;;;;;;;20.80;39.80;;;;;;5074248;28;20006;-61
2023/01/13 02:08:05;;;;;;;;;;;20.80;39.80;;;;;;5074461;28;20032;-61
2023/01/13 02:10:32;;;;;;;;;;;20.80;39.90;;;;;;5073398;28;20011;-61
2023/01/13 02:13:01;;;;;;;;;;;20.80;39.80;;;;;;5073862;28;19924;-61
2023/01/13 02:15:41;;;;;;;;;;;20.70;39.80;;;;;;5073472;28;19935;-61
2023/01/13 02:18:27;;;;;;;;;;;20.80;39.80;;;;;;5073498;28;19920;-61
2023/01/13 02:21:07;;;;;;;;;;;20.70;39.80;;;;;;5074144;28;19924;-61
2023/01/13 02:26:38;;;;;;;;;;;20.70;39.70;;;;;;5073486;28;20895;-61
2023/01/13 02:32:11;;;;;;;;;;;20.70;39.70;;;;;;5072262;28;20371;-61
2023/01/13 02:34:41;;;;;;;;;;;20.70;39.70;;;;;;5073423;28;19920;-62
2023/01/13 02:37:13;;;;;;;;;;;20.70;39.70;;;;;;5073246;28;20395;-61
2023/01/13 02:39:47;;;;;;;;;;;20.70;39.80;;;;;;5073328;28;19920;-61
2023/01/13 02:45:12;;;;;;;;;;;20.70;40.30;;;;;;5073338;28;19927;-61
2023/01/13 02:47:40;;;;;;;;;;;20.70;39.70;;;;;;5073108;28;19927;-61
2023/01/13 02:50:12;;;;;;;;;;;20.70;39.70;;;;;;5073206;28;20026;-62
2023/01/13 02:52:43;;;;;;;;;;;20.70;39.80;;;;;;5072939;28;20003;-61
2023/01/13 02:55:13;;;;;;;;;;;20.70;39.80;;;;;;5072783;28;19920;-62
2023/01/13 02:57:40;;;;;;;;;;;20.70;39.80;;;;;;5072863;28;19920;-62
2023/01/13 03:00:08;;;;;;;;;;;20.70;39.70;;;;;;5072512;28;20003;-62
2023/01/13 03:02:35;;;;;;;;;;;20.70;39.70;;;;;;5072844;28;19978;-61
2023/01/13 03:05:02;;;;;;;;;;;20.70;39.70;;;;;;5072748;28;19931;-61
2023/01/13 03:07:52;;;;;;;;;;;20.70;39.80;;;;;;5073158;28;20283;-62
2023/01/13 03:10:38;;;;;;;;;;;20.70;39.70;;;;;;5058173;28;19936;-61
2023/01/13 03:13:11;;;;;;;;;;;20.70;39.70;;;;;;5073602;28;20402;-61
2023/01/13 03:15:46;;;;;;;;;;;20.70;39.70;;;;;;5074279;28;19963;-61
2023/01/13 03:18:29;;;;;;;;;;;20.70;39.80;;;;;;5074431;28;19920;-61
2023/01/13 03:21:09;;;;;;;;;;;20.60;39.70;;;;;;5073836;28;19924;-61
2023/01/13 03:23:41;;;;;;;;;;;20.70;39.80;;;;;;5073778;28;19924;-62
2023/01/13 03:26:18;;;;;;;;;;;20.60;39.70;;;;;;5074476;28;20283;-61
2023/01/13 03:28:51;;;;;;;;;;;20.60;39.70;;;;;;5073807;28;20000;-61
2023/01/13 03:31:21;;;;;;;;;;;20.60;39.70;;;;;;5074350;28;19920;-61
2023/01/13 03:33:54;;;;;;;;;;;20.70;39.80;;;;;;5055999;28;19926;-61
2023/01/13 03:36:24;;;;;;;;;;;20.60;39.70;;;;;;5071598;28;19960;-61
2023/01/13 03:38:54;;;;;;;;;;;20.70;39.70;;;;;;5070641;28;19920;-61
2023/01/13 03:41:24;;;;;;;;;;;20.70;39.70;;;;;;5073909;28;19920;-61
2023/01/13 03:44:32;;;;;;;;;;;20.60;39.70;;;;;;5070538;28;19921;-61
2023/01/13 03:46:44;;;;;;;;;;;20.70;39.80;;;;;;5033892;28;19927;-61
2023/01/13 03:49:13;;;;;;;;;;;20.60;39.70;;;;;;5034373;28;19975;-61
2023/01/13 03:51:41;;;;;;;;;;;20.60;39.70;;;;;;5033824;28;19927;-62
2023/01/13 03:54:10;;;;;;;;;;;20.70;39.70;;;;;;5034275;28;19933;-61
2023/01/13 03:56:40;;;;;;;;;;;20.60;39.70;;;;;;5034214;28;19921;-61
2023/01/13 03:59:10;;;;;;;;;;;20.70;39.80;;;;;;5062998;28;20296;-61
2023/01/13 04:01:45;;;;;;;;;;;20.70;39.70;;;;;;5064475;28;19928;-63
2023/01/13 04:04:19;;;;;;;;;;;20.70;39.70;;;;;;5058078;28;20357;-61
2023/01/13 04:06:52;;;;;;;;;;;20.60;39.60;;;;;;5065989;28;20027;-62
2023/01/13 04:09:29;;;;;;;;;;;20.70;39.60;;;;;;5073770;28;19925;-61
2023/01/13 04:12:02;;;;;;;;;;;20.60;39.50;;;;;;5073072;28;19925;-61
2023/01/13 04:14:29;;;;;;;;;;;20.70;39.60;;;;;;5073652;28;19966;-61
2023/01/13 04:16:56;;;;;;;;;;;20.60;39.50;;;;;;5073106;28;19939;-61
2023/01/13 04:19:23;;;;;;;;;;;20.70;39.60;;;;;;5068571;28;19921;-61
2023/01/13 04:21:50;;;;;;;;;;;20.70;39.60;;;;;;5069958;28;19928;-61
2023/01/13 04:24:17;;;;;;;;;;;20.70;39.60;;;;;;5073473;28;19927;-61
2023/01/13 04:26:44;;;;;;;;;;;20.60;39.50;;;;;;5073710;28;20294;-62
2023/01/13 04:29:11;;;;;;;;;;;20.70;39.50;;;;;;5073779;28;20352;-61
2023/01/13 04:31:41;;;;;;;;;;;20.60;39.50;;;;;;5073300;28;19920;-61
2023/01/13 04:34:09;;;;;;;;;;;20.60;39.50;;;;;;5073289;28;20435;-61
2023/01/13 04:36:36;;;;;;;;;;;20.60;39.50;;;;;;5073180;28;20337;-61
2023/01/13 04:39:03;;;;;;;;;;;20.60;39.50;;;;;;5060746;28;19921;-61
2023/01/13 04:41:56;;;;;;;;;;;20.60;39.50;;;;;;5061199;28;19979;-61
2023/01/13 04:44:17;;;;;;;;;;;20.70;39.50;;;;;;5052736;28;20384;-61
2023/01/13 04:46:44;;;;;;;;;;;20.60;39.50;;;;;;5053095;28;19921;-62
2023/01/13 04:49:11;;;;;;;;;;;20.60;39.50;;;;;;5052939;28;19920;-62
2023/01/13 04:51:38;;;;;;;;;;;20.60;39.50;;;;;;5061698;28;19942;-62
2023/01/13 04:54:05;;;;;;;;;;;20.60;39.50;;;;;;5064750;28;20011;-61
2023/01/13 04:56:31;;;;;;;;;;;20.60;39.50;;;;;;5061484;28;19927;-61
2023/01/13 04:58:58;;;;;;;;;;;20.60;39.50;;;;;;5065586;28;19931;-61
2023/01/13 05:01:25;;;;;;;;;;;20.60;39.50;;;;;;5064164;28;19921;-61
2023/01/13 05:03:52;;;;;;;;;;;20.60;39.50;;;;;;5060152;28;19921;-62
2023/01/13 05:06:19;;;;;;;;;;;20.60;39.50;;;;;;5064752;28;19920;-61
2023/01/13 05:08:46;;;;;;;;;;;20.60;39.50;;;;;;5074846;28;19984;-61
2023/01/13 05:17:02;;;;;;;;;;;20.60;39.50;;;;;;5056552;28;19931;-61
2023/01/13 05:19:30;;;;;;;;;;;20.60;39.50;;;;;;5056567;28;20335;-62
2023/01/13 05:27:31;;;;;;;;;;;20.60;39.40;;;;;;5076496;28;19921;-61
2023/01/13 05:29:58;;;;;;;;;;;20.60;39.50;;;;;;5074591;28;19924;-62
2023/01/13 05:32:29;;;;;;;;;;;20.60;39.40;;;;;;5061442;28;20007;-62
2023/01/13 05:34:56;;;;;;;;;;;20.60;39.40;;;;;;5076242;28;19926;-62
2023/01/13 05:37:23;;;;;;;;;;;20.60;39.40;;;;;;5075683;28;19921;-61
2023/01/13 05:45:24;;;;;;;;;;;20.60;39.00;;;;;;5072936;28;19920;-61
2023/01/13 05:47:51;;;;;;;;;;;20.50;38.90;;;;;;5075455;28;19920;-61
2023/01/13 05:50:18;;;;;;;;;;;20.50;39.00;;;;;;5074923;28;19920;-61
2023/01/13 05:52:44;;;;;;;;;;;20.50;39.00;;;;;;5074070;28;19927;-61
2023/01/13 05:55:12;;;;;;;;;;;20.50;38.90;;;;;;5075436;28;20362;-61
2023/01/13 05:57:39;;;;;;;;;;;20.50;38.90;;;;;;5075234;28;19921;-62
2023/01/13 06:00:06;;;;;;;;;;;20.50;38.80;;;;;;5075112;28;19921;-61
2023/01/13 06:02:33;;;;;;;;;;;20.50;38.80;;;;;;5072740;28;20360;-61
2023/01/13 06:05:00;;;;;;;;;;;20.60;38.80;;;;;;5076534;28;19920;-62
2023/01/13 06:07:27;;;;;;;;;;;20.60;38.80;;;;;;5071756;28;19970;-61
2023/01/13 06:09:54;;;;;;;;;;;20.60;39.30;;;;;;5075327;28;19932;-62
2023/01/13 06:12:21;;;;;;;;;;;20.60;38.80;;;;;;5074663;28;19927;-62
2023/01/13 06:14:48;;;;;;;;;;;20.60;38.70;;;;;;5075144;28;19920;-62
2023/01/13 06:17:15;;;;;;;;;;;20.70;38.80;;;;;;5075353;28;19924;-62
2023/01/13 06:19:42;;;;;;;;;;;20.70;38.70;;;;;;5073577;28;20019;-62
2023/01/13 06:22:17;;;;;;;;;;;20.70;38.70;;;;;;5068943;28;20014;-62
2023/01/13 06:24:47;;;;;;;;;;;20.70;38.60;;;;;;5067957;28;19973;-62
2023/01/13 06:27:15;;;;;;;;;;;20.70;38.60;;;;;;5066128;28;19952;-61
2023/01/13 06:29:42;;;;;;;;;;;20.80;38.50;;;;;;5069731;28;20376;-62
2023/01/13 06:32:13;;;;;;;;;;;20.80;38.50;;;;;;5062931;28;19921;-62
2023/01/13 06:34:42;;;;;;;;;;;20.80;38.40;;;;;;5068032;28;19970;-62
2023/01/13 06:37:10;;;;;;;;;;;20.90;38.30;;;;;;5062298;28;19949;-63
2023/01/13 06:39:37;;;;;;;;;;;21.00;38.40;;;;;;5067394;28;19983;-62
2023/01/13 06:44:52;;;;;;;;;;;21.10;38.20;;;;;;5061072;28;19940;-63
2023/01/13 06:47:21;;;;;;;;;;;21.10;38.10;;;;;;5059916;28;19928;-62
2023/01/13 06:49:48;;;;;;;;;;;21.20;38.00;;;;;;5058374;28;20376;-63
2023/01/13 06:52:15;;;;;;;;;;;21.20;37.90;;;;;;5064843;28;20018;-62
2023/01/13 06:54:42;;;;;;;;;;;21.30;38.10;;;;;;5062734;28;19928;-65
2023/01/13 06:57:09;;;;;;;;;;;21.30;38.20;;;;;;5063259;28;19982;-64
2023/01/13 06:59:36;;;;;;;;;;;21.40;38.50;;;;;;5067976;28;19952;-67
2023/01/13 07:02:03;;;;;;;;;;;21.40;38.70;;;;;;5067525;28;19928;-68
2023/01/13 07:04:30;;;;;;;;;;;21.40;38.90;;;;;;5040242;28;19920;-68
2023/01/13 07:06:57;;;;;;;;;;;21.40;38.80;;;;;;5061219;28;19994;-69
2023/01/13 07:09:25;;;;;;;;;;;21.50;39.50;;;;;;5066977;28;19924;-68
2023/01/13 07:11:52;;;;;;;;;;;21.50;38.90;;;;;;5066800;28;20440;-72
2023/01/13 07:17:06;;;;;;;;;;;21.60;38.80;;;;;;5063302;28;19931;-67
2023/01/13 07:19:33;;;;;;;;;;;21.70;38.80;;;;;;5066543;28;19928;-66
2023/01/13 07:22:00;;;;;;;;;;;21.70;39.00;;;;;;5066810;28;19935;-69
2023/01/13 07:24:27;;;;;;;;;;;21.80;39.10;;;;;;5067642;28;19977;-68
2023/01/13 07:26:54;;;;;;;;;;;21.80;39.00;;;;;;5067340;28;20011;-66
2023/01/13 07:29:21;;;;;;;;;;;21.90;39.00;;;;;;5064433;28;20043;-67
2023/01/13 07:31:49;;;;;;;;;;;21.90;38.90;;;;;;5064452;28;19926;-68
2023/01/13 07:34:16;;;;;;;;;;;22.00;38.90;;;;;;5067673;28;20399;-66
2023/01/13 07:36:43;;;;;;;;;;;22.00;38.80;;;;;;5065926;28;19928;-67
2023/01/13 07:39:10;;;;;;;;;;;22.10;38.80;;;;;;5063936;28;19925;-65
2023/01/13 07:44:24;;;;;;;;;;;22.10;38.70;;;;;;5063842;28;19929;-68
2023/01/13 07:46:51;;;;;;;;;;;22.20;38.60;;;;;;5067685;28;20364;-65
2023/01/13 07:49:18;;;;;;;;;;;22.20;38.60;;;;;;5066103;28;19920;-67
2023/01/13 07:51:45;;;;;;;;;;;22.20;38.50;;;;;;5066266;28;19934;-66
2023/01/13 07:54:12;;;;;;;;;;;22.30;38.50;;;;;;5050558;28;19928;-63
2023/01/13 07:56:39;;;;;;;;;;;22.30;38.50;;;;;;5064780;28;19938;-75
2023/01/13 07:59:06;;;;;;;;;;;22.30;38.50;;;;;;5066589;28;19928;-70
2023/01/13 08:01:33;;;;;;;;;;;22.40;38.50;;;;;;5069851;28;19976;-70
2023/01/13 08:04:00;;;;;;;;;;;22.40;38.40;;;;;;5066221;28;19955;-74
2023/01/13 08:06:28;;;;;;;;;;;22.50;38.40;;;;;;5048045;28;19928;-72
2023/01/13 08:08:57;;;;;;;;;;;22.50;38.30;;;;;;5064626;28;20364;-73
2023/01/13 08:11:24;;;;;;;;;;;22.50;38.30;;;;;;5066786;28;19924;-71
2023/01/13 08:13:54;;;;;;;;;;;22.50;38.30;;;;;;5068398;28;19920;-69
2023/01/13 08:16:21;;;;;;;;;;;22.60;38.30;;;;;;5066715;28;19978;-71
2023/01/13 08:18:48;;;;;;;;;;;22.60;38.00;;;;;;5066568;28;19928;-73
2023/01/13 08:21:15;;;;;;;;;;;22.60;37.90;;;;;;5067215;28;19924;-77
2023/01/13 08:23:43;;;;;;;;;;;22.70;38.00;;;;;;5062544;28;19967;-72
2023/01/13 08:26:15;;;;;;;;;;;22.70;38.00;;;;;;5066645;28;20979;-71
2023/01/13 08:28:43;;;;;;;;;;;22.80;37.90;;;;;;5061634;28;19920;-72
2023/01/13 08:31:12;;;;;;;;;;;22.80;37.90;;;;;;5061798;28;19930;-72
2023/01/13 08:33:39;;;;;;;;;;;22.90;37.90;;;;;;5042661;28;19928;-72
2023/01/13 08:36:07;;;;;;;;;;;22.90;37.80;;;;;;5065746;28;19920;-71
2023/01/13 08:38:34;;;;;;;;;;;23.00;37.80;;;;;;5048606;28;19928;-68
2023/01/13 08:41:14;;;;;;;;;;;23.00;37.60;;;;;;5065011;28;19931;-72
2023/01/13 08:43:41;;;;;;;;;;;23.10;37.50;;;;;;5063789;28;19936;-65
2023/01/13 08:46:08;;;;;;;;;;;23.10;37.50;;;;;;5063243;28;19928;-66
2023/01/13 08:48:35;;;;;;;;;;;23.20;37.60;;;;;;5066394;28;20533;-68
2023/01/13 08:51:05;;;;;;;;;;;23.20;37.40;;;;;;5067592;28;19973;-67
2023/01/13 08:53:32;;;;;;;;;;;23.20;37.40;;;;;;5063384;28;20019;-65
2023/01/13 08:55:59;;;;;;;;;;;23.30;37.40;;;;;;5067997;28;19924;-62
2023/01/13 08:58:26;;;;;;;;;;;23.30;37.40;;;;;;5065133;28;19934;-64
2023/01/13 09:00:53;;;;;;;;;;;23.30;37.40;;;;;;5063523;28;20323;-66
2023/01/13 09:03:21;;;;;;;;;;;23.30;37.40;;;;;;5063766;28;19950;-66
2023/01/13 09:05:48;;;;;;;;;;;23.30;37.40;;;;;;5065283;28;20023;-63
2023/01/13 09:08:15;;;;;;;;;;;23.40;37.50;;;;;;5060960;28;20345;-64
2023/01/13 09:10:42;;;;;;;;;;;23.40;37.20;;;;;;5057248;28;19928;-62
2023/01/13 09:13:11;;;;;;;;;;;23.40;36.90;;;;;;5062727;28;19928;-63
2023/01/13 09:15:39;;;;;;;;;;;23.40;36.90;;;;;;5065251;28;19928;-62
2023/01/13 09:18:06;;;;;;;;;;;23.50;36.90;;;;;;5064805;28;20429;-65
2023/01/13 09:20:33;;;;;;;;;;;23.50;36.90;;;;;;5063781;28;20053;-65
2023/01/13 09:23:00;;;;;;;;;;;23.60;36.90;;;;;;5060882;28;19966;-65
2023/01/13 09:25:27;;;;;;;;;;;23.60;36.80;;;;;;5063694;28;20395;-62
2023/01/13 09:27:55;;;;;;;;;;;23.60;36.80;;;;;;5062772;28;19954;-62
2023/01/13 09:30:22;;;;;;;;;;;23.70;36.80;;;;;;5063878;28;20011;-61
2023/01/13 09:34:58;;;;;;;;;;;23.70;36.70;;;;;;5061216;28;19951;-62
2023/01/13 09:35:36;;;;;;;;;;;23.70;37.00;;;;;;5062361;28;19950;-61
2023/01/13 09:38:05;;;;;;;;;;;23.80;36.60;;;;;;5062943;28;20010;-60
2023/01/13 09:40:32;;;;;;;;;;;23.80;36.50;;;;;;5064825;28;19928;-62
2023/01/13 09:46:00;;;;;;;;;;;23.90;36.40;;;;;;5068410;28;20356;-64
2023/01/13 09:48:30;;;;;;;;;;;23.90;36.30;;;;;;5067555;28;20347;-63
2023/01/13 09:51:13;;;;;;;;;;;24.00;36.30;;;;;;5064825;28;20027;-66
2023/01/13 09:53:44;;;;;;;;;;;24.00;36.20;;;;;;5071283;28;19928;-65
2023/01/13 09:56:11;;;;;;;;;;;24.10;36.20;;;;;;5067946;28;20283;-64
2023/01/13 09:58:39;;;;;;;;;;;24.10;36.10;;;;;;5069658;28;19928;-63
2023/01/13 10:01:26;;;;;;;;;;;24.10;36.20;;;;;;5064684;28;19971;-62
2023/01/13 10:03:53;;;;;;;;;;;24.20;36.20;;;;;;5055589;28;20280;-68
2023/01/13 10:06:22;;;;;;;;;;;24.20;36.10;;;;;;5068992;28;20291;-64
2023/01/13 10:08:49;;;;;;;;;;;24.20;36.10;;;;;;5070924;28;19948;-63
2023/01/13 10:14:18;;;;;;;;;;;24.30;36.20;;;;;;5065336;28;20027;-64
2023/01/13 10:17:05;;;;;;;;;;;24.30;36.30;;;;;;5065043;28;19935;-64
2023/01/13 10:19:42;;;;;;;;;;;24.30;36.30;;;;;;5067405;28;20007;-64
2023/01/13 10:22:29;;;;;;;;;;;24.40;36.30;;;;;;5063088;28;19928;-68
2023/01/13 10:25:19;;;;;;;;;;;24.40;36.20;;;;;;5067041;28;19927;-63
2023/01/13 10:27:50;;;;;;;;;;;24.50;36.10;;;;;;5068472;28;20041;-63
2023/01/13 10:30:30;;;;;;;;;;;24.50;36.00;;;;;;5064097;28;19947;-64
2023/01/13 10:33:05;;;;;;;;;;;24.50;35.90;;;;;;5064487;28;20435;-64
2023/01/13 10:35:50;;;;;;;;;;;24.50;35.90;;;;;;5067819;28;19979;-63
2023/01/13 10:38:23;;;;;;;;;;;24.50;35.90;;;;;;5063177;28;20434;-63
2023/01/13 10:40:58;;;;;;;;;;;24.50;35.70;;;;;;5066645;28;20356;-65
2023/01/13 10:43:25;;;;;;;;;;;24.60;35.80;;;;;;5069066;28;19927;-62
2023/01/13 10:46:01;;;;;;;;;;;24.60;35.70;;;;;;5071770;28;19927;-63
2023/01/13 10:48:32;;;;;;;;;;;24.60;35.70;;;;;;5064594;28;20018;-64
2023/01/13 10:51:18;;;;;;;;;;;24.70;35.70;;;;;;5064073;28;19924;-63
2023/01/13 10:53:58;;;;;;;;;;;24.70;35.60;;;;;;5067126;28;19967;-66
2023/01/13 10:56:27;;;;;;;;;;;24.70;35.60;;;;;;5076570;28;20324;-64
2023/01/13 10:59:13;;;;;;;;;;;24.70;35.60;;;;;;5069660;28;19921;-62
2023/01/13 11:01:42;;;;;;;;;;;24.70;35.70;;;;;;5056978;28;20016;-63
2023/01/13 11:04:29;;;;;;;;;;;24.70;35.70;;;;;;5048613;28;20361;-63
2023/01/13 11:06:56;;;;;;;;;;;24.80;35.50;;;;;;5050520;28;19920;-65
2023/01/13 11:09:24;;;;;;;;;;;24.80;35.50;;;;;;5047539;28;19979;-64
2023/01/13 11:11:55;;;;;;;;;;;24.80;35.40;;;;;;5065881;28;20022;-62
2023/01/13 11:14:41;;;;;;;;;;;24.80;35.20;;;;;;5068194;28;20071;-62
2023/01/13 11:17:18;;;;;;;;;;;24.80;35.10;;;;;;5052183;28;20196;-63
2023/01/13 11:19:49;;;;;;;;;;;24.80;35.00;;;;;;5067536;28;20279;-62
2023/01/13 11:22:20;;;;;;;;;;;24.80;34.90;;;;;;5050336;28;20004;-63
2023/01/13 11:24:50;;;;;;;;;;;24.80;35.00;;;;;;5067000;28;20277;-63
2023/01/13 11:27:36;;;;;;;;;;;24.70;34.90;;;;;;5070003;28;20380;-63
2023/01/13 11:30:20;;;;;;;;;;;24.70;34.90;;;;;;5061298;28;20372;-62
2023/01/13 11:33:07;;;;;;;;;;;24.70;35.00;;;;;;5064588;28;19990;-61
2023/01/13 11:35:36;;;;;;;;;;;24.70;35.00;;;;;;5067377;28;19935;-60
2023/01/13 11:38:08;;;;;;;;;;;24.70;34.90;;;;;;5064931;28;19931;-63
2023/01/13 11:40:37;;;;;;;;;;;24.70;34.90;;;;;;5051956;28;19926;-61
2023/01/13 11:43:19;;;;;;;;;;;24.70;34.80;;;;;;5067637;28;20019;-62
2023/01/13 11:45:54;;;;;;;;;;;24.80;34.80;;;;;;5066689;28;19920;-61
2023/01/13 11:48:25;;;;;;;;;;;24.80;34.80;;;;;;5060765;28;20022;-61
2023/01/13 11:50:59;;;;;;;;;;;24.80;34.70;;;;;;5049970;28;19928;-63
2023/01/13 11:53:43;;;;;;;;;;;24.80;34.60;;;;;;5067040;28;19960;-61
2023/01/13 11:56:30;;;;;;;;;;;24.80;34.80;;;;;;5068193;28;19927;-61
2023/01/13 11:59:17;;;;;;;;;;;24.80;35.30;;;;;;5038834;28;19920;-62
2023/01/13 12:02:04;;;;;;;;;;;24.80;34.50;;;;;;5049026;28;19921;-62
2023/01/13 12:04:42;;;;;;;;;;;24.80;34.50;;;;;;5065154;28;19928;-61
2023/01/13 12:07:17;;;;;;;;;;;24.80;34.40;;;;;;5062004;28;20010;-62
2023/01/13 12:09:56;;;;;;;;;;;24.80;34.40;;;;;;5062033;28;19931;-60
2023/01/13 12:12:35;;;;;;;;;;;24.90;34.40;;;;;;5064424;28;19983;-61
2023/01/13 12:15:22;;;;;;;;;;;24.90;34.40;;;;;;5058160;28;19951;-61
2023/01/13 12:18:02;;;;;;;;;;;24.90;34.70;;;;;;5064915;28;20011;-62
2023/01/13 12:20:38;;;;;;;;;;;24.90;34.80;;;;;;5064164;28;19931;-63
2023/01/13 12:23:10;;;;;;;;;;;24.90;34.90;;;;;;5064489;28;19928;-61
2023/01/13 12:25:41;;;;;;;;;;;24.90;35.20;;;;;;5065494;28;19930;-62
2023/01/13 12:28:12;;;;;;;;;;;24.90;35.40;;;;;;5066907;28;19934;-61
2023/01/13 12:30:59;;;;;;;;;;;24.90;35.40;;;;;;5062994;28;19928;-60
2023/01/13 12:33:35;;;;;;;;;;;25.00;35.20;;;;;;5063761;28;19929;-61
2023/01/13 12:36:08;;;;;;;;;;;25.00;34.90;;;;;;5068627;28;20439;-62
2023/01/13 12:38:36;;;;;;;;;;;25.00;34.70;;;;;;5061459;28;19928;-60
2023/01/13 12:41:11;;;;;;;;;;;25.00;34.80;;;;;;5065004;28;19924;-60
2023/01/13 12:46:33;;;;;;;;;;;25.00;35.10;;;;;;5063701;28;19920;-62
2023/01/13 12:49:04;;;;;;;;;;;25.00;35.10;;;;;;5062842;28;19962;-66
2023/01/13 12:51:36;;;;;;;;;;;25.00;35.20;;;;;;5072606;28;19926;-65
2023/01/13 12:54:23;;;;;;;;;;;25.00;35.20;;;;;;5071060;28;20004;-63
2023/01/13 12:56:52;;;;;;;;;;;25.00;35.30;;;;;;5072633;28;19928;-61
2023/01/13 12:59:31;;;;;;;;;;;25.10;35.20;;;;;;5067337;28;19928;-61
2023/01/13 13:02:18;;;;;;;;;;;25.00;35.00;;;;;;5061194;28;19960;-62
2023/01/13 13:04:48;;;;;;;;;;;25.10;34.90;;;;;;5054681;28;20279;-60
2023/01/13 13:07:32;;;;;;;;;;;25.10;35.00;;;;;;5060095;28;20011;-61
2023/01/13 13:10:01;;;;;;;;;;;25.10;34.80;;;;;;5067187;28;20360;-61
2023/01/13 13:15:35;;;;;;;;;;;25.00;34.40;;;;;;5071144;28;19946;-61
2023/01/13 13:18:20;;;;;;;;;;;25.00;34.30;;;;;;5069726;28;20014;-62
2023/01/13 13:21:02;;;;;;;;;;;25.00;34.20;;;;;;5067576;28;19920;-62
2023/01/13 13:23:38;;;;;;;;;;;25.00;34.10;;;;;;5068945;28;19961;-62
2023/01/13 13:26:23;;;;;;;;;;;25.00;34.10;;;;;;5066918;28;20396;-62
2023/01/13 13:29:10;;;;;;;;;;;24.90;34.10;;;;;;5052686;28;20015;-61
2023/01/13 13:31:57;;;;;;;;;;;24.90;34.10;;;;;;5075829;28;19927;-61
2023/01/13 13:34:29;;;;;;;;;;;24.90;34.10;;;;;;5075342;28;20380;-62
2023/01/13 13:37:08;;;;;;;;;;;24.90;34.10;;;;;;5075017;28;19926;-62
2023/01/13 13:48:18;;;;;;;;;;;24.80;34.50;;;;;;5075953;28;19959;-62
2023/01/13 13:50:46;;;;;;;;;;;24.70;34.60;;;;;;5075292;28;19920;-61
2023/01/13 13:53:13;;;;;;;;;;;24.70;34.70;;;;;;5074137;28;20411;-64
2023/01/13 13:55:50;;;;;;;;;;;24.70;35.20;;;;;;5075999;28;19924;-64
2023/01/13 13:58:17;;;;;;;;;;;24.70;35.30;;;;;;5074591;28;19920;-64
2023/01/13 14:00:46;;;;;;;;;;;24.60;35.80;;;;;;5075236;28;19928;-63
2023/01/13 14:03:30;;;;;;;;;;;24.60;36.70;;;;;;5073316;28;19920;-65
2023/01/13 14:06:02;;;;;;;;;;;24.50;37.30;;;;;;5070197;28;19989;-63
2023/01/13 14:08:31;;;;;;;;;;;24.50;38.70;;;;;;5056161;28;20007;-63
2023/01/13 14:10:58;;;;;;;;;;;24.50;38.70;;;;;;5073858;28;19942;-64
2023/01/13 14:13:26;;;;;;;;;;;24.50;38.90;;;;;;5073897;28;20360;-60
2023/01/13 14:15:55;;;;;;;;;;;24.50;38.70;;;;;;5075330;28;19920;-62
2023/01/13 14:18:23;;;;;;;;;;;24.40;38.60;;;;;;5074198;28;19946;-63
2023/01/13 14:21:10;;;;;;;;;;;24.40;38.60;;;;;;5074798;28;19928;-60
2023/01/13 14:23:37;;;;;;;;;;;24.40;38.70;;;;;;5074749;28;19920;-61
2023/01/13 14:26:08;;;;;;;;;;;24.40;38.50;;;;;;5075254;28;20016;-61
2023/01/13 14:28:39;;;;;;;;;;;24.40;38.10;;;;;;5072456;28;20003;-64
2023/01/13 14:31:06;;;;;;;;;;;24.30;37.60;;;;;;5075282;28;19927;-63
2023/01/13 14:33:47;;;;;;;;;;;24.30;37.20;;;;;;5072477;28;20012;-64
2023/01/13 14:36:19;;;;;;;;;;;24.30;36.90;;;;;;5058827;28;19927;-63
2023/01/13 14:39:05;;;;;;;;;;;24.20;36.60;;;;;;5069807;28;19964;-64
2023/01/13 14:41:37;;;;;;;;;;;24.20;36.40;;;;;;5080147;28;20011;-64
2023/01/13 14:44:12;;;;;;;;;;;24.10;36.10;;;;;;5082520;28;19930;-65
2023/01/13 14:46:41;;;;;;;;;;;24.10;36.00;;;;;;5072821;28;20371;-63
2023/01/13 14:49:28;;;;;;;;;;;24.10;35.90;;;;;;5073666;28;19920;-63
2023/01/13 14:52:12;;;;;;;;;;;24.10;35.80;;;;;;5072184;28;19999;-64
2023/01/13 14:54:45;;;;;;;;;;;24.00;35.70;;;;;;5073838;28;20008;-63
2023/01/13 14:57:27;;;;;;;;;;;23.90;35.60;;;;;;5074188;28;20014;-63
2023/01/13 14:59:56;;;;;;;;;;;23.90;35.70;;;;;;5072498;28;19920;-64
2023/01/13 15:02:36;;;;;;;;;;;23.80;35.70;;;;;;5075025;28;19920;-65
2023/01/13 15:05:23;;;;;;;;;;;23.90;35.80;;;;;;5073679;28;19920;-63
2023/01/13 15:07:53;;;;;;;;;;;23.80;36.00;;;;;;5059736;28;20334;-64
2023/01/13 15:10:21;;;;;;;;;;;23.80;36.40;;;;;;5074354;28;19926;-64
2023/01/13 15:12:49;;;;;;;;;;;23.80;36.60;;;;;;5074487;28;20383;-63
2023/01/13 15:15:26;;;;;;;;;;;23.80;36.80;;;;;;5074289;28;20012;-63
2023/01/13 15:17:53;;;;;;;;;;;23.70;36.70;;;;;;5074973;28;19924;-63
2023/01/13 15:20:20;;;;;;;;;;;23.70;37.00;;;;;;5073817;28;19926;-63
2023/01/13 15:22:48;;;;;;;;;;;23.70;36.90;;;;;;5073827;28;19920;-63
2023/01/13 15:25:15;;;;;;;;;;;23.70;36.90;;;;;;5073071;28;19920;-63
2023/01/13 15:27:43;;;;;;;;;;;23.60;36.90;;;;;;5073810;28;20011;-63
2023/01/13 15:30:18;;;;;;;;;;;23.60;37.00;;;;;;5089043;28;19926;-64
2023/01/13 15:32:45;;;;;;;;;;;23.50;37.00;;;;;;5093997;28;20006;-64
2023/01/13 15:35:13;;;;;;;;;;;23.50;37.10;;;;;;5094916;28;20278;-63
2023/01/13 15:37:41;;;;;;;;;;;23.40;37.10;;;;;;5094282;28;20018;-64